CheckWX is a tool to help pilots better visualize weather data.  It is not intended as a substitute for an official pre-flight weather briefing.

07:26:35 UTC

KCOE TAF
Coeur D'alene - Pappy Boyington Field Airport
Coeur D'alene, Idaho, USA
KCOE 240539Z 2406/2506 24017G22KT P6SM VCSH BKN050 FM240900 22013G20KT P6SM VCSH BKN021 OVC040 FM241100 22011G17KT P6SM VCSH BKN015 OVC030 FM242000 23011KT P6SM SCT030 BKN050 OVC070 FM250100 26006KT P6SM SCT150

Feb-24@
06:00 UTC

Feb-24 @ 06:00 UTC

Feb-24@
09:00 UTC

Feb-24 @ 09:00 UTC

KCOE 240539Z 2406/2506 24017G22KT P6SM VCSH BKN050
Wind
  • 240° at 17 KTS
  • {Gusting to 22 KTS
Cloud Levels
  • Broken at 5,000' AGL

Feb-24@
09:00 UTC

Feb-24 @ 09:00 UTC

Feb-24@
11:00 UTC

Feb-24 @ 11:00 UTC

FM240900 22013G20KT P6SM VCSH BKN021 OVC040

From

From Standard forecast or significant change

Wind
  • 220° at 13 KTS
  • {Gusting to 20 KTS
Cloud Levels
  • Broken at 2,100' AGL
  • Overcast at 4,000' AGL

Feb-24@
11:00 UTC

Feb-24 @ 11:00 UTC

Feb-24@
20:00 UTC

Feb-24 @ 20:00 UTC

FM241100 22011G17KT P6SM VCSH BKN015 OVC030

From

From Standard forecast or significant change

Wind
  • 220° at 11 KTS
  • {Gusting to 17 KTS
Cloud Levels
  • Broken at 1,500' AGL
  • Overcast at 3,000' AGL

Feb-24@
20:00 UTC

Feb-24 @ 20:00 UTC

Feb-25@
01:00 UTC

Feb-25 @ 01:00 UTC

FM242000 23011KT P6SM SCT030 BKN050 OVC070

From

From Standard forecast or significant change

Wind
  • 230° at 11 KTS
Cloud Levels
  • Scattered at 3,000' AGL
  • Broken at 5,000' AGL
  • Overcast at 7,000' AGL

Feb-25@
01:00 UTC

Feb-25 @ 01:00 UTC

Feb-25@
06:00 UTC

Feb-25 @ 06:00 UTC

FM250100 26006KT P6SM SCT150

From

From Standard forecast or significant change

Wind
  • 260° at 6 KTS
Cloud Levels
  • Scattered at 15,000' AGL